createdAt,value
2023-03-22T04:04:40.348Z,7.55
2023-03-22T04:07:12.347Z,7.52
2023-03-22T04:09:43.968Z,7.49
2023-03-22T04:12:15.973Z,7.47
2023-03-22T04:14:47.662Z,7.46
2023-03-22T04:17:19.773Z,7.45
2023-03-22T04:19:53.711Z,7.44
2023-03-22T04:22:26.427Z,7.42
2023-03-22T04:25:01.525Z,7.42
2023-03-22T04:27:33.211Z,7.41
2023-03-22T04:30:11.170Z,7.39
2023-03-22T04:32:42.889Z,7.39
2023-03-22T04:35:19.010Z,7.38
2023-03-22T04:37:51.690Z,7.39
2023-03-22T04:40:26.586Z,7.39
2023-03-22T04:42:58.994Z,7.37
2023-03-22T04:45:32.313Z,7.36
2023-03-22T04:48:08.026Z,7.34
2023-03-22T04:50:40.710Z,7.31
2023-03-22T06:12:55.804Z,7.54
2023-03-22T06:15:26.802Z,7.55
2023-03-22T06:18:01.213Z,7.56
2023-03-22T06:20:32.177Z,7.56
2023-03-22T06:23:03.278Z,7.56
2023-03-22T06:25:34.252Z,7.57
2023-03-22T06:28:08.548Z,7.58
2023-03-22T06:30:40.108Z,7.60
2023-03-22T06:33:11.266Z,7.61
2023-03-22T06:36:07.088Z,7.60
2023-03-22T06:38:38.245Z,7.60
2023-03-22T06:41:34.615Z,7.58
2023-03-22T06:44:05.638Z,7.62
2023-03-22T06:46:36.711Z,7.62
2023-03-22T06:49:07.874Z,7.64
2023-03-22T06:51:38.826Z,7.71
2023-03-22T06:54:12.045Z,7.82
2023-03-22T06:56:43.331Z,7.92
2023-03-22T06:59:14.242Z,7.99
2023-03-22T07:01:45.649Z,8.04
2023-03-22T07:04:16.938Z,8.07
2023-03-22T07:06:48.176Z,8.06
2023-03-22T07:09:19.281Z,8.06
2023-03-22T07:11:50.494Z,8.11
2023-03-22T07:14:21.512Z,8.19
2023-03-22T07:16:52.451Z,8.26
2023-03-22T07:19:23.593Z,8.34
2023-03-22T07:21:54.881Z,8.41
2023-03-22T07:24:33.745Z,8.47
2023-03-22T07:27:05.214Z,8.61
2023-03-22T07:29:38.332Z,9.37
2023-03-22T07:32:25.390Z,9.50
2023-03-22T07:34:58.459Z,9.31
2023-03-22T07:37:31.152Z,9.20
2023-03-22T07:40:08.828Z,9.12
2023-03-22T07:42:42.938Z,9.10
2023-03-22T07:45:31.659Z,9.14
2023-03-22T07:48:13.311Z,9.32
2023-03-22T07:50:55.954Z,9.45
2023-03-22T07:53:36.202Z,9.53
2023-03-22T07:56:08.671Z,9.59
2023-03-22T07:58:50.324Z,9.70
2023-03-22T08:01:29.773Z,9.85
2023-03-22T08:04:20.544Z,9.96
2023-03-22T08:06:58.023Z,10.02
2023-03-22T08:09:30.772Z,10.17
2023-03-22T08:12:06.762Z,10.32
2023-03-22T08:14:47.538Z,10.34
2023-03-22T08:17:23.053Z,10.31
2023-03-22T08:19:57.703Z,10.27
2023-03-22T08:22:45.226Z,10.26
2023-03-22T08:25:26.426Z,10.41
2023-03-22T08:27:59.351Z,10.57
2023-03-22T08:30:51.071Z,10.77
2023-03-22T08:33:32.780Z,10.91
2023-03-22T08:36:11.616Z,11.05
2023-03-22T08:38:51.124Z,11.04
2023-03-22T08:41:26.709Z,11.13
2023-03-22T08:44:15.604Z,11.13
2023-03-22T08:46:57.213Z,11.07
2023-03-22T08:49:38.713Z,10.95
2023-03-22T08:52:18.740Z,10.86
2023-03-22T08:55:11.569Z,10.78
2023-03-22T08:57:49.874Z,10.72
2023-03-22T09:00:22.856Z,10.73
2023-03-22T09:02:53.811Z,10.76
2023-03-22T09:05:33.514Z,10.82
2023-03-22T09:08:06.793Z,10.94
2023-03-22T09:11:00.993Z,11.01
2023-03-22T09:13:34.180Z,11.02
2023-03-22T09:16:09.169Z,10.97
2023-03-22T09:19:01.721Z,11.06
2023-03-22T09:21:41.317Z,11.11
2023-03-22T09:24:36.989Z,10.96
2023-03-22T09:27:10.691Z,10.86
2023-03-22T09:29:43.381Z,10.81
2023-03-22T09:32:30.029Z,10.72
2023-03-22T09:35:03.235Z,10.71
2023-03-22T09:37:42.406Z,10.75
2023-03-22T09:40:15.059Z,10.79
2023-03-22T09:42:51.455Z,10.78
2023-03-22T09:45:45.914Z,10.76
2023-03-22T09:48:24.846Z,10.77
2023-03-22T09:51:01.090Z,10.77
2023-03-22T09:53:34.067Z,10.90
2023-03-22T09:56:31.086Z,10.98
2023-03-22T09:59:35.657Z,11.24
2023-03-22T10:02:39.159Z,11.32
2023-03-22T10:05:31.872Z,11.43
2023-03-22T10:08:28.165Z,11.62
2023-03-22T10:11:01.544Z,11.78
2023-03-22T10:13:54.399Z,12.04
2023-03-22T10:16:46.781Z,12.23
2023-03-22T10:19:34.649Z,12.22
2023-03-22T10:22:07.308Z,12.40
2023-03-22T10:24:40.319Z,12.38
2023-03-22T10:27:17.199Z,12.22
2023-03-22T10:30:03.669Z,12.33
2023-03-22T10:32:56.849Z,12.47
2023-03-22T10:35:30.145Z,12.42
2023-03-22T10:38:06.002Z,12.33
2023-03-22T10:40:40.311Z,12.40
2023-03-22T10:43:25.597Z,12.40
2023-03-22T10:45:58.387Z,12.45
2023-03-22T10:48:33.780Z,12.49
2023-03-22T10:51:06.492Z,12.60
2023-03-22T10:53:44.420Z,12.64
2023-03-22T10:56:19.460Z,12.56
2023-03-22T10:58:51.429Z,12.37
2023-03-22T11:01:31.257Z,12.26
2023-03-22T11:04:10.345Z,12.39
2023-03-22T11:06:55.650Z,12.58
2023-03-22T11:09:27.293Z,12.70
2023-03-22T11:12:00.059Z,12.91
2023-03-22T11:14:36.314Z,13.13
2023-03-22T11:17:12.032Z,13.25
2023-03-22T11:20:09.276Z,13.40
2023-03-22T11:22:46.524Z,13.38
2023-03-22T11:25:21.778Z,13.55
2023-03-22T11:28:05.439Z,13.69
2023-03-22T11:30:37.188Z,13.58
2023-03-22T11:33:08.328Z,13.39
2023-03-22T11:35:43.661Z,13.21
2023-03-22T11:38:31.721Z,13.06
2023-03-22T11:41:07.110Z,12.98
2023-03-22T11:43:43.494Z,13.03
2023-03-22T11:46:18.750Z,13.21
2023-03-22T11:48:52.502Z,13.24
2023-03-22T11:51:34.493Z,13.35
2023-03-22T11:54:15.955Z,13.68
2023-03-22T11:56:49.784Z,13.84
2023-03-22T11:59:24.760Z,13.91
2023-03-22T12:02:18.251Z,13.81
2023-03-22T12:04:53.620Z,13.72
2023-03-22T12:07:27.125Z,13.69
2023-03-22T12:10:12.750Z,13.74
2023-03-22T12:12:59.420Z,13.81
2023-03-22T12:15:47.128Z,13.88
2023-03-22T12:18:39.411Z,13.98
2023-03-22T12:21:11.498Z,14.05
2023-03-22T12:23:42.709Z,13.97
2023-03-22T12:26:25.839Z,13.97
2023-03-22T12:29:04.559Z,13.95
2023-03-22T12:31:40.456Z,14.03
2023-03-22T12:34:18.099Z,14.16
2023-03-22T12:36:53.260Z,14.19
2023-03-22T12:39:31.037Z,14.20
2023-03-22T12:42:18.140Z,14.12
2023-03-22T12:45:02.571Z,14.00
2023-03-22T12:47:41.175Z,13.91
2023-03-22T12:50:18.076Z,13.92
2023-03-22T12:52:55.481Z,13.83
2023-03-22T12:55:33.510Z,13.75
2023-03-22T12:58:08.350Z,13.75
2023-03-22T13:00:47.963Z,13.59
2023-03-22T13:03:27.924Z,13.50
2023-03-22T13:06:27.430Z,13.43
2023-03-22T13:09:17.560Z,13.32
2023-03-22T13:12:17.224Z,13.28
2023-03-22T13:15:28.336Z,13.25
2023-03-22T13:18:02.809Z,13.24
2023-03-22T13:20:34.050Z,13.15
2023-03-22T13:23:10.628Z,13.12
2023-03-22T13:25:59.490Z,13.03
2023-03-22T13:28:36.648Z,12.96
2023-03-22T13:31:44.728Z,12.96
2023-03-22T13:34:19.284Z,12.94
2023-03-22T13:36:54.468Z,12.95
2023-03-22T13:39:34.017Z,12.92
2023-03-22T13:42:18.636Z,12.92
2023-03-22T13:45:03.263Z,13.01
2023-03-22T13:47:46.109Z,13.05
2023-03-22T13:50:29.753Z,13.20
2023-03-22T13:53:36.042Z,13.24
2023-03-22T13:56:11.902Z,13.28
2023-03-22T13:58:45.656Z,13.38
2023-03-22T14:01:26.102Z,13.51
2023-03-22T14:04:00.772Z,13.62
2023-03-22T14:06:39.176Z,13.71
2023-03-22T14:09:25.245Z,13.71
2023-03-22T14:12:20.810Z,13.64
2023-03-22T14:14:56.462Z,13.57
2023-03-22T14:17:50.532Z,13.50
2023-03-22T14:20:25.119Z,13.37
